sensor_id;sensor_type;location;lat;lon;timestamp;P1;durP1;ratioP1;P2;durP2;ratioP2
10845;SDS011;5476;51.540;7.186;2023-10-19T00:00:51;7.07;;;6.33;;
10845;SDS011;5476;51.540;7.186;2023-10-19T00:03:21;11.37;;;7.17;;
10845;SDS011;5476;51.540;7.186;2023-10-19T00:05:48;7.17;;;6.33;;
10845;SDS011;5476;51.540;7.186;2023-10-19T00:08:17;8.60;;;6.23;;
10845;SDS011;5476;51.540;7.186;2023-10-19T00:10:46;9.43;;;6.47;;
10845;SDS011;5476;51.540;7.186;2023-10-19T00:13:19;7.73;;;6.77;;
10845;SDS011;5476;51.540;7.186;2023-10-19T00:15:45;8.02;;;6.53;;
10845;SDS011;5476;51.540;7.186;2023-10-19T00:18:16;9.27;;;7.03;;
10845;SDS011;5476;51.540;7.186;2023-10-19T00:20:48;7.23;;;6.53;;
10845;SDS011;5476;51.540;7.186;2023-10-19T00:23:26;7.57;;;6.77;;
10845;SDS011;5476;51.540;7.186;2023-10-19T00:25:56;8.20;;;6.57;;
10845;SDS011;5476;51.540;7.186;2023-10-19T00:28:23;8.83;;;6.80;;
10845;SDS011;5476;51.540;7.186;2023-10-19T00:30:51;8.83;;;7.00;;
10845;SDS011;5476;51.540;7.186;2023-10-19T00:33:24;7.83;;;6.37;;
10845;SDS011;5476;51.540;7.186;2023-10-19T00:35:53;7.68;;;6.30;;
10845;SDS011;5476;51.540;7.186;2023-10-19T00:38:32;7.80;;;6.47;;
10845;SDS011;5476;51.540;7.186;2023-10-19T00:41:06;7.63;;;6.75;;
10845;SDS011;5476;51.540;7.186;2023-10-19T00:43:39;6.73;;;6.10;;
10845;SDS011;5476;51.540;7.186;2023-10-19T00:46:10;8.10;;;6.60;;
10845;SDS011;5476;51.540;7.186;2023-10-19T00:48:47;7.03;;;5.70;;
10845;SDS011;5476;51.540;7.186;2023-10-19T00:51:16;7.15;;;6.28;;
10845;SDS011;5476;51.540;7.186;2023-10-19T00:54:08;8.25;;;6.47;;
10845;SDS011;5476;51.540;7.186;2023-10-19T00:56:40;7.93;;;6.22;;
10845;SDS011;5476;51.540;7.186;2023-10-19T00:59:11;8.30;;;5.72;;
10845;SDS011;5476;51.540;7.186;2023-10-19T01:01:39;7.38;;;6.68;;
10845;SDS011;5476;51.540;7.186;2023-10-19T01:04:10;7.47;;;6.18;;
10845;SDS011;5476;51.540;7.186;2023-10-19T01:06:39;6.63;;;5.93;;
10845;SDS011;5476;51.540;7.186;2023-10-19T01:09:10;7.67;;;6.67;;
10845;SDS011;5476;51.540;7.186;2023-10-19T01:11:40;7.47;;;6.67;;
10845;SDS011;5476;51.540;7.186;2023-10-19T01:14:19;10.37;;;6.83;;
10845;SDS011;5476;51.540;7.186;2023-10-19T01:16:48;8.33;;;6.87;;
10845;SDS011;5476;51.540;7.186;2023-10-19T01:19:16;8.38;;;6.90;;
10845;SDS011;5476;51.540;7.186;2023-10-19T01:21:43;8.50;;;6.73;;
10845;SDS011;5476;51.540;7.186;2023-10-19T01:24:17;7.77;;;6.23;;
10845;SDS011;5476;51.540;7.186;2023-10-19T01:26:49;7.40;;;6.63;;
10845;SDS011;5476;51.540;7.186;2023-10-19T01:29:18;7.67;;;6.87;;
10845;SDS011;5476;51.540;7.186;2023-10-19T01:31:51;8.47;;;7.23;;
10845;SDS011;5476;51.540;7.186;2023-10-19T01:34:21;9.00;;;6.60;;
10845;SDS011;5476;51.540;7.186;2023-10-19T01:36:51;7.73;;;6.93;;
10845;SDS011;5476;51.540;7.186;2023-10-19T01:39:21;7.63;;;6.93;;
10845;SDS011;5476;51.540;7.186;2023-10-19T01:41:48;9.20;;;7.40;;
10845;SDS011;5476;51.540;7.186;2023-10-19T01:44:16;9.77;;;7.17;;
10845;SDS011;5476;51.540;7.186;2023-10-19T01:46:45;8.07;;;6.80;;
10845;SDS011;5476;51.540;7.186;2023-10-19T01:49:13;9.13;;;7.15;;
10845;SDS011;5476;51.540;7.186;2023-10-19T01:51:51;8.60;;;6.73;;
10845;SDS011;5476;51.540;7.186;2023-10-19T01:54:17;9.10;;;7.13;;
10845;SDS011;5476;51.540;7.186;2023-10-19T01:56:49;9.63;;;7.13;;
10845;SDS011;5476;51.540;7.186;2023-10-19T01:59:16;7.80;;;6.20;;
10845;SDS011;5476;51.540;7.186;2023-10-19T02:01:44;8.30;;;6.97;;
10845;SDS011;5476;51.540;7.186;2023-10-19T02:04:11;8.15;;;7.03;;
10845;SDS011;5476;51.540;7.186;2023-10-19T02:06:38;7.13;;;6.43;;
10845;SDS011;5476;51.540;7.186;2023-10-19T02:09:06;8.30;;;6.83;;
10845;SDS011;5476;51.540;7.186;2023-10-19T02:11:46;7.53;;;6.73;;
10845;SDS011;5476;51.540;7.186;2023-10-19T02:14:15;6.93;;;5.95;;
10845;SDS011;5476;51.540;7.186;2023-10-19T02:16:45;8.57;;;6.67;;
10845;SDS011;5476;51.540;7.186;2023-10-19T02:19:12;7.43;;;6.57;;
10845;SDS011;5476;51.540;7.186;2023-10-19T02:21:39;9.13;;;5.70;;
10845;SDS011;5476;51.540;7.186;2023-10-19T02:24:06;6.15;;;5.47;;
10845;SDS011;5476;51.540;7.186;2023-10-19T02:26:34;8.05;;;5.72;;
10845;SDS011;5476;51.540;7.186;2023-10-19T02:29:02;6.00;;;5.40;;
10845;SDS011;5476;51.540;7.186;2023-10-19T02:31:33;6.75;;;4.82;;
10845;SDS011;5476;51.540;7.186;2023-10-19T02:34:02;6.35;;;5.00;;
10845;SDS011;5476;51.540;7.186;2023-10-19T02:36:31;5.72;;;4.70;;
10845;SDS011;5476;51.540;7.186;2023-10-19T02:38:57;5.07;;;4.38;;
10845;SDS011;5476;51.540;7.186;2023-10-19T02:41:25;5.60;;;4.85;;
10845;SDS011;5476;51.540;7.186;2023-10-19T02:43:52;5.30;;;4.10;;
10845;SDS011;5476;51.540;7.186;2023-10-19T02:46:27;6.13;;;4.10;;
10845;SDS011;5476;51.540;7.186;2023-10-19T02:48:55;5.10;;;3.85;;
10845;SDS011;5476;51.540;7.186;2023-10-19T02:51:21;5.65;;;4.07;;
10845;SDS011;5476;51.540;7.186;2023-10-19T02:53:48;3.92;;;3.60;;
10845;SDS011;5476;51.540;7.186;2023-10-19T02:56:15;4.00;;;3.60;;
10845;SDS011;5476;51.540;7.186;2023-10-19T02:58:42;5.20;;;3.85;;
10845;SDS011;5476;51.540;7.186;2023-10-19T03:01:14;6.82;;;4.32;;
10845;SDS011;5476;51.540;7.186;2023-10-19T03:03:44;4.20;;;3.50;;
10845;SDS011;5476;51.540;7.186;2023-10-19T03:06:12;4.28;;;3.80;;
10845;SDS011;5476;51.540;7.186;2023-10-19T03:08:38;5.75;;;3.50;;
10845;SDS011;5476;51.540;7.186;2023-10-19T03:11:05;3.45;;;3.13;;
10845;SDS011;5476;51.540;7.186;2023-10-19T03:13:32;6.18;;;3.33;;
10845;SDS011;5476;51.540;7.186;2023-10-19T03:15:59;5.68;;;3.38;;
10845;SDS011;5476;51.540;7.186;2023-10-19T03:18:26;5.72;;;3.40;;
10845;SDS011;5476;51.540;7.186;2023-10-19T03:20:53;3.50;;;2.80;;
10845;SDS011;5476;51.540;7.186;2023-10-19T03:23:20;5.35;;;2.90;;
10845;SDS011;5476;51.540;7.186;2023-10-19T03:25:53;4.00;;;3.10;;
10845;SDS011;5476;51.540;7.186;2023-10-19T03:28:38;5.07;;;3.40;;
10845;SDS011;5476;51.540;7.186;2023-10-19T03:31:06;3.20;;;2.90;;
10845;SDS011;5476;51.540;7.186;2023-10-19T03:33:33;4.65;;;3.30;;
10845;SDS011;5476;51.540;7.186;2023-10-19T03:36:01;4.32;;;3.03;;
10845;SDS011;5476;51.540;7.186;2023-10-19T03:38:31;6.82;;;3.53;;
10845;SDS011;5476;51.540;7.186;2023-10-19T03:41:02;4.40;;;2.97;;
10845;SDS011;5476;51.540;7.186;2023-10-19T03:43:32;3.05;;;2.80;;
10845;SDS011;5476;51.540;7.186;2023-10-19T03:46:01;2.97;;;2.67;;
10845;SDS011;5476;51.540;7.186;2023-10-19T03:48:39;3.17;;;2.67;;
10845;SDS011;5476;51.540;7.186;2023-10-19T03:51:06;4.00;;;2.33;;
10845;SDS011;5476;51.540;7.186;2023-10-19T03:53:38;3.30;;;2.63;;
10845;SDS011;5476;51.540;7.186;2023-10-19T03:56:08;5.03;;;2.75;;
10845;SDS011;5476;51.540;7.186;2023-10-19T03:58:36;4.13;;;2.75;;
10845;SDS011;5476;51.540;7.186;2023-10-19T04:01:05;4.47;;;2.85;;
10845;SDS011;5476;51.540;7.186;2023-10-19T04:03:32;3.03;;;2.50;;
10845;SDS011;5476;51.540;7.186;2023-10-19T04:06:01;3.03;;;2.72;;
10845;SDS011;5476;51.540;7.186;2023-10-19T04:08:29;5.00;;;2.90;;
10845;SDS011;5476;51.540;7.186;2023-10-19T04:11:01;3.28;;;2.40;;
10845;SDS011;5476;51.540;7.186;2023-10-19T04:13:36;3.78;;;2.65;;
10845;SDS011;5476;51.540;7.186;2023-10-19T04:16:04;3.35;;;2.53;;
10845;SDS011;5476;51.540;7.186;2023-10-19T04:18:34;4.35;;;2.45;;
10845;SDS011;5476;51.540;7.186;2023-10-19T04:21:03;3.22;;;2.65;;
10845;SDS011;5476;51.540;7.186;2023-10-19T04:23:30;2.65;;;2.05;;
10845;SDS011;5476;51.540;7.186;2023-10-19T04:26:00;3.03;;;2.33;;
10845;SDS011;5476;51.540;7.186;2023-10-19T04:28:36;2.67;;;2.10;;
10845;SDS011;5476;51.540;7.186;2023-10-19T04:31:09;4.72;;;2.58;;
10845;SDS011;5476;51.540;7.186;2023-10-19T04:33:39;3.72;;;2.45;;
10845;SDS011;5476;51.540;7.186;2023-10-19T04:36:07;2.53;;;1.88;;
10845;SDS011;5476;51.540;7.186;2023-10-19T04:38:36;3.70;;;2.40;;
10845;SDS011;5476;51.540;7.186;2023-10-19T04:41:05;3.00;;;2.50;;
10845;SDS011;5476;51.540;7.186;2023-10-19T04:43:35;5.72;;;2.17;;
10845;SDS011;5476;51.540;7.186;2023-10-19T04:46:09;3.58;;;2.53;;
10845;SDS011;5476;51.540;7.186;2023-10-19T04:48:37;4.20;;;2.20;;
10845;SDS011;5476;51.540;7.186;2023-10-19T04:51:07;3.83;;;2.33;;
10845;SDS011;5476;51.540;7.186;2023-10-19T04:53:35;4.22;;;2.60;;
10845;SDS011;5476;51.540;7.186;2023-10-19T04:56:02;3.58;;;2.50;;
10845;SDS011;5476;51.540;7.186;2023-10-19T04:58:33;2.63;;;2.28;;
10845;SDS011;5476;51.540;7.186;2023-10-19T05:01:01;2.75;;;2.40;;
10845;SDS011;5476;51.540;7.186;2023-10-19T05:03:29;2.30;;;2.13;;
10845;SDS011;5476;51.540;7.186;2023-10-19T05:05:56;4.15;;;2.47;;
10845;SDS011;5476;51.540;7.186;2023-10-19T05:08:22;4.25;;;2.15;;
10845;SDS011;5476;51.540;7.186;2023-10-19T05:10:51;2.78;;;2.28;;
10845;SDS011;5476;51.540;7.186;2023-10-19T05:13:20;2.58;;;2.17;;
10845;SDS011;5476;51.540;7.186;2023-10-19T05:15:48;4.50;;;2.30;;
10845;SDS011;5476;51.540;7.186;2023-10-19T05:18:15;4.57;;;2.50;;
10845;SDS011;5476;51.540;7.186;2023-10-19T05:20:41;2.70;;;2.10;;
10845;SDS011;5476;51.540;7.186;2023-10-19T05:23:08;4.63;;;2.38;;
10845;SDS011;5476;51.540;7.186;2023-10-19T05:25:35;3.22;;;2.30;;
10845;SDS011;5476;51.540;7.186;2023-10-19T05:28:03;4.80;;;2.60;;
10845;SDS011;5476;51.540;7.186;2023-10-19T05:30:32;3.72;;;2.13;;
10845;SDS011;5476;51.540;7.186;2023-10-19T05:32:59;4.20;;;2.00;;
10845;SDS011;5476;51.540;7.186;2023-10-19T05:35:26;3.85;;;2.13;;
10845;SDS011;5476;51.540;7.186;2023-10-19T05:37:54;3.15;;;2.20;;
10845;SDS011;5476;51.540;7.186;2023-10-19T05:40:21;3.97;;;2.10;;
10845;SDS011;5476;51.540;7.186;2023-10-19T05:42:49;3.72;;;2.13;;
10845;SDS011;5476;51.540;7.186;2023-10-19T05:45:16;3.47;;;1.95;;
10845;SDS011;5476;51.540;7.186;2023-10-19T05:47:44;3.60;;;2.03;;
10845;SDS011;5476;51.540;7.186;2023-10-19T05:50:10;2.60;;;2.05;;
10845;SDS011;5476;51.540;7.186;2023-10-19T05:52:39;4.80;;;2.00;;
10845;SDS011;5476;51.540;7.186;2023-10-19T05:55:07;3.10;;;2.17;;
10845;SDS011;5476;51.540;7.186;2023-10-19T05:57:35;3.60;;;2.30;;
10845;SDS011;5476;51.540;7.186;2023-10-19T06:00:06;4.07;;;1.98;;
10845;SDS011;5476;51.540;7.186;2023-10-19T06:02:37;3.33;;;2.17;;
10845;SDS011;5476;51.540;7.186;2023-10-19T06:05:06;3.47;;;2.25;;
10845;SDS011;5476;51.540;7.186;2023-10-19T06:07:34;4.57;;;2.58;;
10845;SDS011;5476;51.540;7.186;2023-10-19T06:10:00;3.75;;;2.25;;
10845;SDS011;5476;51.540;7.186;2023-10-19T06:12:29;3.67;;;2.05;;
10845;SDS011;5476;51.540;7.186;2023-10-19T06:14:56;2.58;;;1.92;;
10845;SDS011;5476;51.540;7.186;2023-10-19T06:17:23;3.17;;;1.83;;
10845;SDS011;5476;51.540;7.186;2023-10-19T06:19:50;3.17;;;2.15;;
10845;SDS011;5476;51.540;7.186;2023-10-19T06:22:18;5.10;;;2.20;;
10845;SDS011;5476;51.540;7.186;2023-10-19T06:24:45;3.45;;;2.50;;
10845;SDS011;5476;51.540;7.186;2023-10-19T06:27:12;2.65;;;1.90;;
10845;SDS011;5476;51.540;7.186;2023-10-19T06:29:39;2.60;;;1.90;;
10845;SDS011;5476;51.540;7.186;2023-10-19T06:32:06;5.53;;;2.03;;
10845;SDS011;5476;51.540;7.186;2023-10-19T06:34:33;6.13;;;2.20;;
10845;SDS011;5476;51.540;7.186;2023-10-19T06:37:00;4.93;;;2.38;;
10845;SDS011;5476;51.540;7.186;2023-10-19T06:39:30;3.42;;;2.13;;
10845;SDS011;5476;51.540;7.186;2023-10-19T06:41:57;2.72;;;2.20;;
10845;SDS011;5476;51.540;7.186;2023-10-19T06:44:24;4.07;;;2.35;;
10845;SDS011;5476;51.540;7.186;2023-10-19T06:46:51;6.20;;;2.35;;
10845;SDS011;5476;51.540;7.186;2023-10-19T06:49:17;4.03;;;2.20;;
10845;SDS011;5476;51.540;7.186;2023-10-19T06:51:44;6.22;;;2.13;;
10845;SDS011;5476;51.540;7.186;2023-10-19T06:54:12;5.45;;;2.20;;
10845;SDS011;5476;51.540;7.186;2023-10-19T06:56:40;3.83;;;2.22;;
10845;SDS011;5476;51.540;7.186;2023-10-19T06:59:07;6.30;;;2.25;;
10845;SDS011;5476;51.540;7.186;2023-10-19T07:01:33;4.13;;;2.10;;
10845;SDS011;5476;51.540;7.186;2023-10-19T07:04:01;6.20;;;2.58;;
10845;SDS011;5476;51.540;7.186;2023-10-19T07:06:28;3.70;;;2.28;;
10845;SDS011;5476;51.540;7.186;2023-10-19T07:08:55;4.05;;;2.40;;
10845;SDS011;5476;51.540;7.186;2023-10-19T07:11:23;4.68;;;2.28;;
10845;SDS011;5476;51.540;7.186;2023-10-19T07:13:54;3.92;;;2.20;;
10845;SDS011;5476;51.540;7.186;2023-10-19T07:16:21;4.20;;;2.05;;
10845;SDS011;5476;51.540;7.186;2023-10-19T07:18:48;4.72;;;2.20;;
10845;SDS011;5476;51.540;7.186;2023-10-19T07:21:16;4.40;;;2.15;;
10845;SDS011;5476;51.540;7.186;2023-10-19T07:23:43;3.78;;;2.10;;
10845;SDS011;5476;51.540;7.186;2023-10-19T07:26:10;3.42;;;2.22;;
10845;SDS011;5476;51.540;7.186;2023-10-19T07:28:39;2.95;;;2.05;;
10845;SDS011;5476;51.540;7.186;2023-10-19T07:31:08;3.88;;;2.20;;
10845;SDS011;5476;51.540;7.186;2023-10-19T07:33:38;3.13;;;2.40;;
10845;SDS011;5476;51.540;7.186;2023-10-19T07:36:12;5.25;;;2.35;;
10845;SDS011;5476;51.540;7.186;2023-10-19T07:38:39;3.42;;;2.00;;
10845;SDS011;5476;51.540;7.186;2023-10-19T07:41:07;3.08;;;2.15;;
10845;SDS011;5476;51.540;7.186;2023-10-19T07:43:34;2.80;;;1.98;;
10845;SDS011;5476;51.540;7.186;2023-10-19T07:46:01;6.10;;;2.17;;
10845;SDS011;5476;51.540;7.186;2023-10-19T07:48:29;6.82;;;2.35;;
10845;SDS011;5476;51.540;7.186;2023-10-19T07:50:57;4.45;;;2.20;;
10845;SDS011;5476;51.540;7.186;2023-10-19T07:53:24;3.55;;;2.17;;
10845;SDS011;5476;51.540;7.186;2023-10-19T07:55:51;3.58;;;2.15;;
10845;SDS011;5476;51.540;7.186;2023-10-19T07:58:18;5.72;;;2.42;;
10845;SDS011;5476;51.540;7.186;2023-10-19T08:00:45;3.90;;;2.35;;
10845;SDS011;5476;51.540;7.186;2023-10-19T08:03:12;4.63;;;2.40;;
10845;SDS011;5476;51.540;7.186;2023-10-19T08:05:42;4.10;;;2.53;;
10845;SDS011;5476;51.540;7.186;2023-10-19T08:08:09;3.28;;;2.30;;
10845;SDS011;5476;51.540;7.186;2023-10-19T08:10:37;3.20;;;2.38;;
10845;SDS011;5476;51.540;7.186;2023-10-19T08:13:04;5.63;;;2.55;;
10845;SDS011;5476;51.540;7.186;2023-10-19T08:15:31;4.38;;;3.08;;
10845;SDS011;5476;51.540;7.186;2023-10-19T08:17:58;3.83;;;2.78;;
10845;SDS011;5476;51.540;7.186;2023-10-19T08:20:25;4.60;;;2.72;;
10845;SDS011;5476;51.540;7.186;2023-10-19T08:22:57;4.50;;;2.40;;
10845;SDS011;5476;51.540;7.186;2023-10-19T08:25:26;3.40;;;2.40;;
10845;SDS011;5476;51.540;7.186;2023-10-19T08:27:53;4.88;;;2.67;;
10845;SDS011;5476;51.540;7.186;2023-10-19T08:30:22;4.38;;;2.45;;
10845;SDS011;5476;51.540;7.186;2023-10-19T08:32:50;3.60;;;2.20;;
10845;SDS011;5476;51.540;7.186;2023-10-19T08:35:18;4.30;;;2.42;;
10845;SDS011;5476;51.540;7.186;2023-10-19T08:37:49;2.78;;;2.17;;
10845;SDS011;5476;51.540;7.186;2023-10-19T08:40:18;3.13;;;2.50;;
10845;SDS011;5476;51.540;7.186;2023-10-19T08:42:46;3.95;;;2.63;;
10845;SDS011;5476;51.540;7.186;2023-10-19T08:45:14;4.25;;;2.72;;
10845;SDS011;5476;51.540;7.186;2023-10-19T08:47:43;5.20;;;2.70;;
10845;SDS011;5476;51.540;7.186;2023-10-19T08:50:18;7.43;;;2.80;;
10845;SDS011;5476;51.540;7.186;2023-10-19T08:52:48;3.40;;;2.40;;
10845;SDS011;5476;51.540;7.186;2023-10-19T08:55:20;4.65;;;2.70;;
10845;SDS011;5476;51.540;7.186;2023-10-19T08:57:47;4.25;;;2.75;;
10845;SDS011;5476;51.540;7.186;2023-10-19T09:00:16;4.25;;;2.47;;
10845;SDS011;5476;51.540;7.186;2023-10-19T09:02:43;8.52;;;2.70;;
10845;SDS011;5476;51.540;7.186;2023-10-19T09:05:10;4.88;;;2.47;;
10845;SDS011;5476;51.540;7.186;2023-10-19T09:07:45;5.88;;;2.88;;
10845;SDS011;5476;51.540;7.186;2023-10-19T09:10:15;3.60;;;2.50;;
10845;SDS011;5476;51.540;7.186;2023-10-19T09:12:44;3.63;;;2.40;;
10845;SDS011;5476;51.540;7.186;2023-10-19T09:15:21;5.65;;;2.65;;
10845;SDS011;5476;51.540;7.186;2023-10-19T09:17:49;3.35;;;2.40;;
10845;SDS011;5476;51.540;7.186;2023-10-19T09:20:19;4.55;;;2.38;;
10845;SDS011;5476;51.540;7.186;2023-10-19T09:22:52;13.52;;;2.70;;
10845;SDS011;5476;51.540;7.186;2023-10-19T09:25:20;5.32;;;2.40;;
10845;SDS011;5476;51.540;7.186;2023-10-19T09:27:49;4.25;;;2.50;;
10845;SDS011;5476;51.540;7.186;2023-10-19T09:30:16;4.35;;;2.47;;
10845;SDS011;5476;51.540;7.186;2023-10-19T09:32:46;7.63;;;2.88;;
10845;SDS011;5476;51.540;7.186;2023-10-19T09:35:14;3.78;;;2.13;;
10845;SDS011;5476;51.540;7.186;2023-10-19T09:37:41;4.85;;;2.38;;
10845;SDS011;5476;51.540;7.186;2023-10-19T09:40:08;4.72;;;2.70;;
10845;SDS011;5476;51.540;7.186;2023-10-19T09:42:38;3.47;;;2.30;;
10845;SDS011;5476;51.540;7.186;2023-10-19T09:45:12;6.47;;;2.53;;
10845;SDS011;5476;51.540;7.186;2023-10-19T09:47:42;5.32;;;2.70;;
10845;SDS011;5476;51.540;7.186;2023-10-19T09:50:15;3.15;;;2.13;;
10845;SDS011;5476;51.540;7.186;2023-10-19T09:52:42;3.67;;;1.75;;
10845;SDS011;5476;51.540;7.186;2023-10-19T09:55:10;3.83;;;2.05;;
10845;SDS011;5476;51.540;7.186;2023-10-19T09:57:45;5.95;;;2.45;;
10845;SDS011;5476;51.540;7.186;2023-10-19T10:00:18;2.50;;;2.00;;
10845;SDS011;5476;51.540;7.186;2023-10-19T10:02:49;4.63;;;2.00;;
10845;SDS011;5476;51.540;7.186;2023-10-19T10:05:44;4.75;;;1.98;;
10845;SDS011;5476;51.540;7.186;2023-10-19T10:08:29;6.10;;;2.60;;
10845;SDS011;5476;51.540;7.186;2023-10-19T10:10:57;6.78;;;2.83;;
10845;SDS011;5476;51.540;7.186;2023-10-19T10:13:37;5.43;;;2.03;;
10845;SDS011;5476;51.540;7.186;2023-10-19T10:16:05;5.40;;;1.92;;
10845;SDS011;5476;51.540;7.186;2023-10-19T10:18:33;3.95;;;2.22;;
10845;SDS011;5476;51.540;7.186;2023-10-19T10:21:05;4.82;;;1.77;;
10845;SDS011;5476;51.540;7.186;2023-10-19T10:23:35;4.05;;;1.83;;
10845;SDS011;5476;51.540;7.186;2023-10-19T10:26:07;3.97;;;1.58;;
10845;SDS011;5476;51.540;7.186;2023-10-19T10:28:34;4.00;;;1.85;;
10845;SDS011;5476;51.540;7.186;2023-10-19T10:33:48;5.55;;;2.08;;
10845;SDS011;5476;51.540;7.186;2023-10-19T10:36:16;5.35;;;2.05;;
10845;SDS011;5476;51.540;7.186;2023-10-19T10:38:45;3.80;;;1.80;;
10845;SDS011;5476;51.540;7.186;2023-10-19T10:41:19;5.68;;;1.80;;
10845;SDS011;5476;51.540;7.186;2023-10-19T10:43:50;8.65;;;2.08;;
10845;SDS011;5476;51.540;7.186;2023-10-19T10:46:20;3.47;;;1.73;;
10845;SDS011;5476;51.540;7.186;2023-10-19T10:48:47;4.40;;;1.88;;
10845;SDS011;5476;51.540;7.186;2023-10-19T10:51:18;5.07;;;1.95;;
10845;SDS011;5476;51.540;7.186;2023-10-19T10:53:47;3.45;;;1.70;;
10845;SDS011;5476;51.540;7.186;2023-10-19T10:56:14;5.85;;;1.60;;
10845;SDS011;5476;51.540;7.186;2023-10-19T10:58:41;4.53;;;1.63;;
10845;SDS011;5476;51.540;7.186;2023-10-19T11:01:08;5.15;;;1.80;;
10845;SDS011;5476;51.540;7.186;2023-10-19T11:03:37;5.95;;;1.67;;
10845;SDS011;5476;51.540;7.186;2023-10-19T11:06:04;5.15;;;1.73;;
10845;SDS011;5476;51.540;7.186;2023-10-19T11:08:33;7.88;;;1.80;;
10845;SDS011;5476;51.540;7.186;2023-10-19T11:11:04;6.47;;;1.80;;
10845;SDS011;5476;51.540;7.186;2023-10-19T11:13:32;4.72;;;1.58;;
10845;SDS011;5476;51.540;7.186;2023-10-19T11:16:02;5.47;;;1.50;;
10845;SDS011;5476;51.540;7.186;2023-10-19T11:18:31;5.72;;;1.70;;
10845;SDS011;5476;51.540;7.186;2023-10-19T11:21:02;3.47;;;1.42;;
10845;SDS011;5476;51.540;7.186;2023-10-19T11:23:38;7.70;;;1.88;;
10845;SDS011;5476;51.540;7.186;2023-10-19T11:26:07;5.32;;;2.10;;
10845;SDS011;5476;51.540;7.186;2023-10-19T11:28:35;5.65;;;1.80;;
10845;SDS011;5476;51.540;7.186;2023-10-19T11:31:14;6.00;;;1.70;;
10845;SDS011;5476;51.540;7.186;2023-10-19T11:33:42;6.63;;;1.98;;
10845;SDS011;5476;51.540;7.186;2023-10-19T11:36:11;6.38;;;1.60;;
10845;SDS011;5476;51.540;7.186;2023-10-19T11:38:39;6.90;;;1.90;;
10845;SDS011;5476;51.540;7.186;2023-10-19T11:41:07;4.95;;;1.88;;
10845;SDS011;5476;51.540;7.186;2023-10-19T11:43:34;5.72;;;1.83;;
10845;SDS011;5476;51.540;7.186;2023-10-19T11:46:01;6.40;;;2.00;;
10845;SDS011;5476;51.540;7.186;2023-10-19T11:48:29;5.68;;;1.90;;
10845;SDS011;5476;51.540;7.186;2023-10-19T11:50:56;7.35;;;2.10;;
10845;SDS011;5476;51.540;7.186;2023-10-19T11:53:25;9.35;;;2.03;;
10845;SDS011;5476;51.540;7.186;2023-10-19T11:55:52;4.15;;;2.00;;
10845;SDS011;5476;51.540;7.186;2023-10-19T11:58:18;6.13;;;1.90;;
10845;SDS011;5476;51.540;7.186;2023-10-19T12:00:45;5.55;;;1.83;;
10845;SDS011;5476;51.540;7.186;2023-10-19T12:03:12;7.20;;;1.60;;
10845;SDS011;5476;51.540;7.186;2023-10-19T12:05:40;3.17;;;1.70;;
10845;SDS011;5476;51.540;7.186;2023-10-19T12:08:07;6.72;;;2.53;;
10845;SDS011;5476;51.540;7.186;2023-10-19T12:10:35;6.30;;;1.88;;
10845;SDS011;5476;51.540;7.186;2023-10-19T12:13:03;5.10;;;1.70;;
10845;SDS011;5476;51.540;7.186;2023-10-19T12:15:31;7.25;;;2.25;;
10845;SDS011;5476;51.540;7.186;2023-10-19T12:17:58;6.78;;;2.17;;
10845;SDS011;5476;51.540;7.186;2023-10-19T12:20:27;6.45;;;1.90;;
10845;SDS011;5476;51.540;7.186;2023-10-19T12:22:56;5.90;;;1.73;;
10845;SDS011;5476;51.540;7.186;2023-10-19T12:25:24;5.28;;;1.83;;
10845;SDS011;5476;51.540;7.186;2023-10-19T12:27:57;4.85;;;2.20;;
10845;SDS011;5476;51.540;7.186;2023-10-19T12:30:24;4.65;;;1.83;;
10845;SDS011;5476;51.540;7.186;2023-10-19T12:32:57;4.00;;;1.65;;
10845;SDS011;5476;51.540;7.186;2023-10-19T12:35:26;5.32;;;1.88;;
10845;SDS011;5476;51.540;7.186;2023-10-19T12:38:09;7.22;;;2.25;;
10845;SDS011;5476;51.540;7.186;2023-10-19T12:40:41;9.38;;;3.15;;
10845;SDS011;5476;51.540;7.186;2023-10-19T12:43:10;5.97;;;1.70;;
10845;SDS011;5476;51.540;7.186;2023-10-19T12:45:37;7.00;;;1.92;;
10845;SDS011;5476;51.540;7.186;2023-10-19T12:48:05;3.28;;;1.98;;
10845;SDS011;5476;51.540;7.186;2023-10-19T12:50:33;3.63;;;1.90;;
10845;SDS011;5476;51.540;7.186;2023-10-19T12:53:01;5.72;;;1.90;;
10845;SDS011;5476;51.540;7.186;2023-10-19T12:55:28;7.60;;;2.33;;
10845;SDS011;5476;51.540;7.186;2023-10-19T12:57:56;7.43;;;2.50;;
10845;SDS011;5476;51.540;7.186;2023-10-19T13:00:26;7.13;;;2.30;;
10845;SDS011;5476;51.540;7.186;2023-10-19T13:02:54;5.28;;;2.22;;
10845;SDS011;5476;51.540;7.186;2023-10-19T13:05:25;8.50;;;2.40;;
10845;SDS011;5476;51.540;7.186;2023-10-19T13:07:54;6.40;;;2.10;;
10845;SDS011;5476;51.540;7.186;2023-10-19T13:10:23;4.75;;;2.00;;
10845;SDS011;5476;51.540;7.186;2023-10-19T13:12:57;4.93;;;1.75;;
10845;SDS011;5476;51.540;7.186;2023-10-19T13:15:29;5.72;;;2.10;;
10845;SDS011;5476;51.540;7.186;2023-10-19T13:17:57;5.85;;;2.28;;
10845;SDS011;5476;51.540;7.186;2023-10-19T13:20:25;8.73;;;2.10;;
10845;SDS011;5476;51.540;7.186;2023-10-19T13:22:53;8.02;;;3.28;;
10845;SDS011;5476;51.540;7.186;2023-10-19T13:25:21;6.85;;;2.30;;
10845;SDS011;5476;51.540;7.186;2023-10-19T13:28:04;10.55;;;3.45;;
10845;SDS011;5476;51.540;7.186;2023-10-19T13:30:36;9.10;;;2.28;;
10845;SDS011;5476;51.540;7.186;2023-10-19T13:33:04;4.07;;;1.77;;
10845;SDS011;5476;51.540;7.186;2023-10-19T13:35:32;5.65;;;1.95;;
10845;SDS011;5476;51.540;7.186;2023-10-19T13:37:59;5.78;;;2.13;;
10845;SDS011;5476;51.540;7.186;2023-10-19T13:40:26;5.47;;;2.05;;
10845;SDS011;5476;51.540;7.186;2023-10-19T13:42:56;5.07;;;2.05;;
10845;SDS011;5476;51.540;7.186;2023-10-19T13:45:23;5.47;;;2.30;;
10845;SDS011;5476;51.540;7.186;2023-10-19T13:47:52;5.03;;;2.30;;
10845;SDS011;5476;51.540;7.186;2023-10-19T13:50:21;5.57;;;2.38;;
10845;SDS011;5476;51.540;7.186;2023-10-19T13:52:49;4.70;;;2.03;;
10845;SDS011;5476;51.540;7.186;2023-10-19T13:55:17;4.18;;;1.75;;
10845;SDS011;5476;51.540;7.186;2023-10-19T13:57:45;9.02;;;2.45;;
10845;SDS011;5476;51.540;7.186;2023-10-19T14:00:13;6.68;;;2.08;;
10845;SDS011;5476;51.540;7.186;2023-10-19T14:02:44;5.15;;;2.28;;
10845;SDS011;5476;51.540;7.186;2023-10-19T14:05:14;6.05;;;2.95;;
10845;SDS011;5476;51.540;7.186;2023-10-19T14:07:41;9.07;;;2.53;;
10845;SDS011;5476;51.540;7.186;2023-10-19T14:10:09;9.20;;;2.33;;
10845;SDS011;5476;51.540;7.186;2023-10-19T14:12:37;6.38;;;2.22;;
10845;SDS011;5476;51.540;7.186;2023-10-19T14:15:07;8.32;;;2.50;;
10845;SDS011;5476;51.540;7.186;2023-10-19T14:17:38;12.32;;;2.85;;
10845;SDS011;5476;51.540;7.186;2023-10-19T14:20:06;6.47;;;3.13;;
10845;SDS011;5476;51.540;7.186;2023-10-19T14:22:38;7.53;;;2.67;;
10845;SDS011;5476;51.540;7.186;2023-10-19T14:25:06;7.32;;;2.60;;
10845;SDS011;5476;51.540;7.186;2023-10-19T14:27:37;8.13;;;2.22;;
10845;SDS011;5476;51.540;7.186;2023-10-19T14:30:04;8.82;;;3.00;;
10845;SDS011;5476;51.540;7.186;2023-10-19T14:32:32;4.47;;;2.13;;
10845;SDS011;5476;51.540;7.186;2023-10-19T14:34:59;6.55;;;2.65;;
10845;SDS011;5476;51.540;7.186;2023-10-19T14:37:26;10.57;;;2.97;;
10845;SDS011;5476;51.540;7.186;2023-10-19T14:39:55;6.72;;;2.40;;
10845;SDS011;5476;51.540;7.186;2023-10-19T14:42:21;6.75;;;3.08;;
10845;SDS011;5476;51.540;7.186;2023-10-19T14:44:48;6.93;;;3.15;;
10845;SDS011;5476;51.540;7.186;2023-10-19T14:47:15;5.13;;;2.75;;
10845;SDS011;5476;51.540;7.186;2023-10-19T14:49:43;8.32;;;2.75;;
10845;SDS011;5476;51.540;7.186;2023-10-19T14:52:10;6.95;;;2.85;;
10845;SDS011;5476;51.540;7.186;2023-10-19T14:54:37;6.45;;;2.70;;
10845;SDS011;5476;51.540;7.186;2023-10-19T14:57:05;7.35;;;2.75;;
10845;SDS011;5476;51.540;7.186;2023-10-19T14:59:33;20.83;;;12.23;;
10845;SDS011;5476;51.540;7.186;2023-10-19T15:02:06;10.75;;;5.45;;
10845;SDS011;5476;51.540;7.186;2023-10-19T15:04:40;12.07;;;6.10;;
10845;SDS011;5476;51.540;7.186;2023-10-19T15:07:10;11.43;;;4.72;;
10845;SDS011;5476;51.540;7.186;2023-10-19T15:09:37;6.35;;;2.97;;
10845;SDS011;5476;51.540;7.186;2023-10-19T15:12:06;6.38;;;2.78;;
10845;SDS011;5476;51.540;7.186;2023-10-19T15:14:33;8.20;;;3.13;;